sensor_id;sensor_type;location;lat;lon;timestamp;temperature;humidity
31677;DHT22;18385;51.572;6.578;2023-07-08T00:02:12;24.90;39.40
31677;DHT22;18385;51.572;6.578;2023-07-08T00:04:39;24.90;39.40
31677;DHT22;18385;51.572;6.578;2023-07-08T00:07:07;25.00;39.60
31677;DHT22;18385;51.572;6.578;2023-07-08T00:09:35;25.00;39.60
31677;DHT22;18385;51.572;6.578;2023-07-08T00:12:01;25.00;39.50
31677;DHT22;18385;51.572;6.578;2023-07-08T00:14:27;25.00;39.50
31677;DHT22;18385;51.572;6.578;2023-07-08T00:16:52;25.10;39.70
31677;DHT22;18385;51.572;6.578;2023-07-08T00:19:18;25.10;39.70
31677;DHT22;18385;51.572;6.578;2023-07-08T00:21:47;25.20;39.70
31677;DHT22;18385;51.572;6.578;2023-07-08T00:24:13;25.30;39.80
31677;DHT22;18385;51.572;6.578;2023-07-08T00:26:38;25.30;39.60
31677;DHT22;18385;51.572;6.578;2023-07-08T00:29:16;25.30;39.50
31677;DHT22;18385;51.572;6.578;2023-07-08T00:31:42;25.40;39.70
31677;DHT22;18385;51.572;6.578;2023-07-08T00:34:08;25.40;39.60
31677;DHT22;18385;51.572;6.578;2023-07-08T00:36:34;25.40;39.60
31677;DHT22;18385;51.572;6.578;2023-07-08T00:39:00;25.40;40.30
31677;DHT22;18385;51.572;6.578;2023-07-08T00:43:58;25.40;39.70
31677;DHT22;18385;51.572;6.578;2023-07-08T00:49:03;25.40;39.90
31677;DHT22;18385;51.572;6.578;2023-07-08T00:51:38;25.40;39.90
31677;DHT22;18385;51.572;6.578;2023-07-08T00:56:49;25.40;39.90
31677;DHT22;18385;51.572;6.578;2023-07-08T00:59:23;25.40;39.90
31677;DHT22;18385;51.572;6.578;2023-07-08T01:01:50;25.40;39.90
31677;DHT22;18385;51.572;6.578;2023-07-08T01:04:22;25.40;39.90
31677;DHT22;18385;51.572;6.578;2023-07-08T01:06:53;25.40;39.90
31677;DHT22;18385;51.572;6.578;2023-07-08T01:09:31;25.40;39.90
31677;DHT22;18385;51.572;6.578;2023-07-08T01:12:02;25.40;40.10
31677;DHT22;18385;51.572;6.578;2023-07-08T01:14:31;25.30;40.00
31677;DHT22;18385;51.572;6.578;2023-07-08T01:16:59;25.30;40.00
31677;DHT22;18385;51.572;6.578;2023-07-08T01:19:26;25.30;40.10
31677;DHT22;18385;51.572;6.578;2023-07-08T01:24:27;25.20;40.10
31677;DHT22;18385;51.572;6.578;2023-07-08T01:26:54;25.20;40.20
31677;DHT22;18385;51.572;6.578;2023-07-08T01:29:20;25.20;40.20
31677;DHT22;18385;51.572;6.578;2023-07-08T01:31:46;25.20;40.40
31677;DHT22;18385;51.572;6.578;2023-07-08T01:34:17;25.10;40.40
31677;DHT22;18385;51.572;6.578;2023-07-08T01:36:51;25.10;40.60
31677;DHT22;18385;51.572;6.578;2023-07-08T01:39:19;25.10;41.00
31677;DHT22;18385;51.572;6.578;2023-07-08T01:41:46;25.10;40.90
31677;DHT22;18385;51.572;6.578;2023-07-08T01:44:23;25.10;40.90
31677;DHT22;18385;51.572;6.578;2023-07-08T01:46:50;25.10;41.20
31677;DHT22;18385;51.572;6.578;2023-07-08T01:49:17;25.00;41.20
31677;DHT22;18385;51.572;6.578;2023-07-08T01:51:44;25.00;40.80
31677;DHT22;18385;51.572;6.578;2023-07-08T01:54:10;24.90;41.20
31677;DHT22;18385;51.572;6.578;2023-07-08T01:56:37;24.90;41.20
31677;DHT22;18385;51.572;6.578;2023-07-08T01:59:03;25.00;41.10
31677;DHT22;18385;51.572;6.578;2023-07-08T02:01:29;25.00;41.30
31677;DHT22;18385;51.572;6.578;2023-07-08T02:03:54;24.90;41.40
31677;DHT22;18385;51.572;6.578;2023-07-08T02:06:20;24.80;41.40
31677;DHT22;18385;51.572;6.578;2023-07-08T02:08:46;24.90;41.50
31677;DHT22;18385;51.572;6.578;2023-07-08T02:11:11;24.80;41.60
31677;DHT22;18385;51.572;6.578;2023-07-08T02:13:37;24.80;41.80
31677;DHT22;18385;51.572;6.578;2023-07-08T02:16:03;24.70;41.80
31677;DHT22;18385;51.572;6.578;2023-07-08T02:18:29;24.60;41.90
31677;DHT22;18385;51.572;6.578;2023-07-08T02:20:58;24.60;42.10
31677;DHT22;18385;51.572;6.578;2023-07-08T02:23:24;24.60;42.20
31677;DHT22;18385;51.572;6.578;2023-07-08T02:25:54;24.50;42.50
31677;DHT22;18385;51.572;6.578;2023-07-08T02:28:20;24.40;42.50
31677;DHT22;18385;51.572;6.578;2023-07-08T02:30:46;24.30;42.50
31677;DHT22;18385;51.572;6.578;2023-07-08T02:33:13;24.30;42.70
31677;DHT22;18385;51.572;6.578;2023-07-08T02:35:40;24.20;42.90
31677;DHT22;18385;51.572;6.578;2023-07-08T02:38:06;24.10;43.00
31677;DHT22;18385;51.572;6.578;2023-07-08T02:40:31;24.10;43.10
31677;DHT22;18385;51.572;6.578;2023-07-08T02:42:57;24.00;43.40
31677;DHT22;18385;51.572;6.578;2023-07-08T02:45:22;23.90;43.50
31677;DHT22;18385;51.572;6.578;2023-07-08T02:47:48;23.80;43.70
31677;DHT22;18385;51.572;6.578;2023-07-08T02:50:14;23.70;43.90
31677;DHT22;18385;51.572;6.578;2023-07-08T02:52:40;23.60;44.00
31677;DHT22;18385;51.572;6.578;2023-07-08T02:55:06;23.50;44.20
31677;DHT22;18385;51.572;6.578;2023-07-08T02:57:31;23.40;44.30
31677;DHT22;18385;51.572;6.578;2023-07-08T02:59:57;23.40;44.40
31677;DHT22;18385;51.572;6.578;2023-07-08T03:02:23;23.30;44.70
31677;DHT22;18385;51.572;6.578;2023-07-08T03:04:49;23.30;44.80
31677;DHT22;18385;51.572;6.578;2023-07-08T03:07:17;23.20;44.90
31677;DHT22;18385;51.572;6.578;2023-07-08T03:09:43;23.20;45.00
31677;DHT22;18385;51.572;6.578;2023-07-08T03:12:10;23.20;45.00
31677;DHT22;18385;51.572;6.578;2023-07-08T03:14:37;23.20;45.20
31677;DHT22;18385;51.572;6.578;2023-07-08T03:17:03;23.20;45.90
31677;DHT22;18385;51.572;6.578;2023-07-08T03:19:29;23.20;45.40
31677;DHT22;18385;51.572;6.578;2023-07-08T03:21:55;23.30;45.40
31677;DHT22;18385;51.572;6.578;2023-07-08T03:24:21;23.30;45.50
31677;DHT22;18385;51.572;6.578;2023-07-08T03:26:48;23.30;45.50
31677;DHT22;18385;51.572;6.578;2023-07-08T03:29:18;23.30;45.70
31677;DHT22;18385;51.572;6.578;2023-07-08T03:31:46;23.30;45.90
31677;DHT22;18385;51.572;6.578;2023-07-08T03:34:13;23.20;45.80
31677;DHT22;18385;51.572;6.578;2023-07-08T03:36:48;23.20;46.00
31677;DHT22;18385;51.572;6.578;2023-07-08T03:39:17;23.20;46.10
31677;DHT22;18385;51.572;6.578;2023-07-08T03:41:43;23.10;46.00
31677;DHT22;18385;51.572;6.578;2023-07-08T03:44:09;23.10;46.20
31677;DHT22;18385;51.572;6.578;2023-07-08T03:46:35;23.10;46.20
31677;DHT22;18385;51.572;6.578;2023-07-08T03:49:01;23.10;46.30
31677;DHT22;18385;51.572;6.578;2023-07-08T03:51:29;23.10;46.40
31677;DHT22;18385;51.572;6.578;2023-07-08T03:53:55;23.00;46.60
31677;DHT22;18385;51.572;6.578;2023-07-08T03:56:22;23.00;46.50
31677;DHT22;18385;51.572;6.578;2023-07-08T03:58:48;23.00;46.50
31677;DHT22;18385;51.572;6.578;2023-07-08T04:01:15;23.00;46.60
31677;DHT22;18385;51.572;6.578;2023-07-08T04:03:43;22.90;46.70
31677;DHT22;18385;51.572;6.578;2023-07-08T04:06:11;22.80;46.60
31677;DHT22;18385;51.572;6.578;2023-07-08T04:08:36;22.90;46.80
31677;DHT22;18385;51.572;6.578;2023-07-08T04:11:02;22.90;47.00
31677;DHT22;18385;51.572;6.578;2023-07-08T04:13:28;22.90;47.10
31677;DHT22;18385;51.572;6.578;2023-07-08T04:15:56;22.90;47.10
31677;DHT22;18385;51.572;6.578;2023-07-08T04:18:24;22.90;47.10
31677;DHT22;18385;51.572;6.578;2023-07-08T04:20:49;22.90;47.10
31677;DHT22;18385;51.572;6.578;2023-07-08T04:23:21;22.90;47.10
31677;DHT22;18385;51.572;6.578;2023-07-08T04:25:48;22.90;47.20
31677;DHT22;18385;51.572;6.578;2023-07-08T04:28:14;22.90;47.10
31677;DHT22;18385;51.572;6.578;2023-07-08T04:30:40;23.00;47.20
31677;DHT22;18385;51.572;6.578;2023-07-08T04:33:11;23.00;47.10
31677;DHT22;18385;51.572;6.578;2023-07-08T04:35:38;23.10;47.10
31677;DHT22;18385;51.572;6.578;2023-07-08T04:38:05;23.20;47.10
31677;DHT22;18385;51.572;6.578;2023-07-08T04:40:38;23.30;47.00
31677;DHT22;18385;51.572;6.578;2023-07-08T04:43:06;23.30;47.00
31677;DHT22;18385;51.572;6.578;2023-07-08T04:45:32;23.30;46.90
31677;DHT22;18385;51.572;6.578;2023-07-08T04:47:57;23.40;47.00
31677;DHT22;18385;51.572;6.578;2023-07-08T04:50:23;23.40;47.10
31677;DHT22;18385;51.572;6.578;2023-07-08T04:52:49;23.40;47.10
31677;DHT22;18385;51.572;6.578;2023-07-08T04:55:15;23.40;47.20
31677;DHT22;18385;51.572;6.578;2023-07-08T04:57:41;23.40;47.30
31677;DHT22;18385;51.572;6.578;2023-07-08T05:00:07;23.40;47.30
31677;DHT22;18385;51.572;6.578;2023-07-08T05:02:36;23.50;47.40
31677;DHT22;18385;51.572;6.578;2023-07-08T05:05:02;23.40;47.20
31677;DHT22;18385;51.572;6.578;2023-07-08T05:07:27;23.50;47.50
31677;DHT22;18385;51.572;6.578;2023-07-08T05:09:53;23.50;47.40
31677;DHT22;18385;51.572;6.578;2023-07-08T05:12:19;23.50;47.50
31677;DHT22;18385;51.572;6.578;2023-07-08T05:14:44;23.60;47.50
31677;DHT22;18385;51.572;6.578;2023-07-08T05:17:11;23.60;47.60
31677;DHT22;18385;51.572;6.578;2023-07-08T05:19:37;23.80;47.60
31677;DHT22;18385;51.572;6.578;2023-07-08T05:22:03;24.00;47.60
31677;DHT22;18385;51.572;6.578;2023-07-08T05:24:29;24.10;47.40
31677;DHT22;18385;51.572;6.578;2023-07-08T05:26:54;24.20;47.10
31677;DHT22;18385;51.572;6.578;2023-07-08T05:29:20;24.30;47.10
31677;DHT22;18385;51.572;6.578;2023-07-08T05:31:46;24.30;46.90
31677;DHT22;18385;51.572;6.578;2023-07-08T05:34:12;24.30;46.90
31677;DHT22;18385;51.572;6.578;2023-07-08T05:36:37;24.20;47.00
31677;DHT22;18385;51.572;6.578;2023-07-08T05:39:04;24.20;47.10
31677;DHT22;18385;51.572;6.578;2023-07-08T05:41:31;24.10;47.10
31677;DHT22;18385;51.572;6.578;2023-07-08T05:43:56;24.10;47.20
31677;DHT22;18385;51.572;6.578;2023-07-08T05:46:22;24.10;47.30
31677;DHT22;18385;51.572;6.578;2023-07-08T05:48:49;24.10;47.30
31677;DHT22;18385;51.572;6.578;2023-07-08T05:51:16;24.10;47.30
31677;DHT22;18385;51.572;6.578;2023-07-08T05:53:42;24.10;47.30
31677;DHT22;18385;51.572;6.578;2023-07-08T05:56:08;24.20;47.30
31677;DHT22;18385;51.572;6.578;2023-07-08T05:58:33;24.30;47.30
31677;DHT22;18385;51.572;6.578;2023-07-08T06:00:59;24.40;47.20
31677;DHT22;18385;51.572;6.578;2023-07-08T06:03:25;24.60;47.10
31677;DHT22;18385;51.572;6.578;2023-07-08T06:05:52;24.70;46.90
31677;DHT22;18385;51.572;6.578;2023-07-08T06:08:18;24.80;46.70
31677;DHT22;18385;51.572;6.578;2023-07-08T06:10:44;24.90;46.70
31677;DHT22;18385;51.572;6.578;2023-07-08T06:13:10;25.00;46.60
31677;DHT22;18385;51.572;6.578;2023-07-08T06:15:37;25.10;46.50
31677;DHT22;18385;51.572;6.578;2023-07-08T06:18:02;25.20;46.30
31677;DHT22;18385;51.572;6.578;2023-07-08T06:20:29;25.30;46.30
31677;DHT22;18385;51.572;6.578;2023-07-08T06:22:55;25.30;46.30
31677;DHT22;18385;51.572;6.578;2023-07-08T06:25:21;25.10;46.40
31677;DHT22;18385;51.572;6.578;2023-07-08T06:27:46;24.90;46.60
31677;DHT22;18385;51.572;6.578;2023-07-08T06:30:12;24.80;46.80
31677;DHT22;18385;51.572;6.578;2023-07-08T06:32:38;24.60;47.20
31677;DHT22;18385;51.572;6.578;2023-07-08T06:35:04;24.50;47.40
31677;DHT22;18385;51.572;6.578;2023-07-08T06:37:30;24.50;47.80
31677;DHT22;18385;51.572;6.578;2023-07-08T06:39:56;24.50;48.00
31677;DHT22;18385;51.572;6.578;2023-07-08T06:42:21;24.50;48.10
31677;DHT22;18385;51.572;6.578;2023-07-08T06:44:57;24.50;47.90
31677;DHT22;18385;51.572;6.578;2023-07-08T06:47:22;24.60;47.80
31677;DHT22;18385;51.572;6.578;2023-07-08T06:49:48;24.70;47.70
31677;DHT22;18385;51.572;6.578;2023-07-08T06:52:14;24.80;47.90
31677;DHT22;18385;51.572;6.578;2023-07-08T06:54:40;24.90;47.80
31677;DHT22;18385;51.572;6.578;2023-07-08T06:57:06;25.00;47.90
31677;DHT22;18385;51.572;6.578;2023-07-08T06:59:33;25.10;47.90
31677;DHT22;18385;51.572;6.578;2023-07-08T07:01:59;25.10;47.60
31677;DHT22;18385;51.572;6.578;2023-07-08T07:04:24;25.30;47.80
31677;DHT22;18385;51.572;6.578;2023-07-08T07:06:50;25.40;47.50
31677;DHT22;18385;51.572;6.578;2023-07-08T07:09:16;25.60;47.30
31677;DHT22;18385;51.572;6.578;2023-07-08T07:11:42;25.70;47.10
31677;DHT22;18385;51.572;6.578;2023-07-08T07:14:07;25.80;46.90
31677;DHT22;18385;51.572;6.578;2023-07-08T07:16:34;25.90;46.80
31677;DHT22;18385;51.572;6.578;2023-07-08T07:18:59;26.00;46.60
31677;DHT22;18385;51.572;6.578;2023-07-08T07:21:25;26.00;46.60
31677;DHT22;18385;51.572;6.578;2023-07-08T07:23:51;26.00;46.60
31677;DHT22;18385;51.572;6.578;2023-07-08T07:26:16;26.00;46.60
31677;DHT22;18385;51.572;6.578;2023-07-08T07:28:42;26.10;46.70
31677;DHT22;18385;51.572;6.578;2023-07-08T07:31:08;26.00;46.60
31677;DHT22;18385;51.572;6.578;2023-07-08T07:33:36;26.10;46.70
31677;DHT22;18385;51.572;6.578;2023-07-08T07:36:02;26.10;46.70
31677;DHT22;18385;51.572;6.578;2023-07-08T07:38:32;26.20;46.70
31677;DHT22;18385;51.572;6.578;2023-07-08T07:40:58;26.20;46.30
31677;DHT22;18385;51.572;6.578;2023-07-08T07:43:25;26.30;46.40
31677;DHT22;18385;51.572;6.578;2023-07-08T07:45:52;26.30;46.50
31677;DHT22;18385;51.572;6.578;2023-07-08T07:48:19;26.40;46.80
31677;DHT22;18385;51.572;6.578;2023-07-08T07:50:48;26.50;46.00
31677;DHT22;18385;51.572;6.578;2023-07-08T07:53:15;26.60;46.10
31677;DHT22;18385;51.572;6.578;2023-07-08T07:55:41;26.60;45.80
31677;DHT22;18385;51.572;6.578;2023-07-08T07:58:06;26.70;45.90
31677;DHT22;18385;51.572;6.578;2023-07-08T08:00:33;26.80;45.70
31677;DHT22;18385;51.572;6.578;2023-07-08T08:02:59;26.80;45.60
31677;DHT22;18385;51.572;6.578;2023-07-08T08:05:25;26.90;45.50
31677;DHT22;18385;51.572;6.578;2023-07-08T08:07:50;27.00;45.50
31677;DHT22;18385;51.572;6.578;2023-07-08T08:10:16;27.10;45.30
31677;DHT22;18385;51.572;6.578;2023-07-08T08:12:42;27.30;45.20
31677;DHT22;18385;51.572;6.578;2023-07-08T08:15:08;27.40;45.20
31677;DHT22;18385;51.572;6.578;2023-07-08T08:17:34;27.50;44.80
31677;DHT22;18385;51.572;6.578;2023-07-08T08:19:59;27.60;44.70
31677;DHT22;18385;51.572;6.578;2023-07-08T08:22:25;27.70;44.40
31677;DHT22;18385;51.572;6.578;2023-07-08T08:24:51;27.90;44.20
31677;DHT22;18385;51.572;6.578;2023-07-08T08:27:16;28.00;44.20
31677;DHT22;18385;51.572;6.578;2023-07-08T08:29:42;28.10;44.20
31677;DHT22;18385;51.572;6.578;2023-07-08T08:32:07;28.10;43.90
31677;DHT22;18385;51.572;6.578;2023-07-08T08:34:33;28.20;43.40
31677;DHT22;18385;51.572;6.578;2023-07-08T08:36:59;28.30;43.20
31677;DHT22;18385;51.572;6.578;2023-07-08T08:39:25;28.50;42.80
31677;DHT22;18385;51.572;6.578;2023-07-08T08:41:54;28.60;42.60
31677;DHT22;18385;51.572;6.578;2023-07-08T08:44:28;28.70;42.10
31677;DHT22;18385;51.572;6.578;2023-07-08T08:49:46;28.80;41.70
31677;DHT22;18385;51.572;6.578;2023-07-08T08:52:14;28.90;41.60
31677;DHT22;18385;51.572;6.578;2023-07-08T08:54:41;29.00;41.60
31677;DHT22;18385;51.572;6.578;2023-07-08T09:00:07;29.10;41.20
31677;DHT22;18385;51.572;6.578;2023-07-08T09:02:47;29.20;41.40
31677;DHT22;18385;51.572;6.578;2023-07-08T09:05:18;29.30;40.90
31677;DHT22;18385;51.572;6.578;2023-07-08T09:08:05;29.40;40.50
31677;DHT22;18385;51.572;6.578;2023-07-08T09:11:07;29.50;40.30
31677;DHT22;18385;51.572;6.578;2023-07-08T09:13:36;29.60;40.00
31677;DHT22;18385;51.572;6.578;2023-07-08T09:18:52;29.90;39.20
31677;DHT22;18385;51.572;6.578;2023-07-08T09:21:24;30.00;39.00
31677;DHT22;18385;51.572;6.578;2023-07-08T09:23:55;30.10;38.80
31677;DHT22;18385;51.572;6.578;2023-07-08T09:26:27;30.20;38.40
31677;DHT22;18385;51.572;6.578;2023-07-08T09:28:55;30.30;38.20
31677;DHT22;18385;51.572;6.578;2023-07-08T09:31:25;30.40;38.40
31677;DHT22;18385;51.572;6.578;2023-07-08T09:34:21;30.50;37.90
31677;DHT22;18385;51.572;6.578;2023-07-08T09:36:50;30.60;37.70
31677;DHT22;18385;51.572;6.578;2023-07-08T09:39:18;30.60;37.40
31677;DHT22;18385;51.572;6.578;2023-07-08T09:41:47;30.80;37.30
31677;DHT22;18385;51.572;6.578;2023-07-08T09:46:38;30.90;37.80
31677;DHT22;18385;51.572;6.578;2023-07-08T09:49:23;30.90;36.70
31677;DHT22;18385;51.572;6.578;2023-07-08T09:51:50;30.90;36.40
31677;DHT22;18385;51.572;6.578;2023-07-08T09:54:20;31.00;36.10
31677;DHT22;18385;51.572;6.578;2023-07-08T09:56:54;31.10;35.80
31677;DHT22;18385;51.572;6.578;2023-07-08T09:59:24;31.10;35.50
31677;DHT22;18385;51.572;6.578;2023-07-08T10:01:53;31.30;35.50
31677;DHT22;18385;51.572;6.578;2023-07-08T10:04:19;31.30;35.00
31677;DHT22;18385;51.572;6.578;2023-07-08T10:06:45;31.40;35.00
31677;DHT22;18385;51.572;6.578;2023-07-08T10:09:18;31.40;35.40
31677;DHT22;18385;51.572;6.578;2023-07-08T10:11:56;31.40;34.70
31677;DHT22;18385;51.572;6.578;2023-07-08T10:14:31;31.50;34.50
31677;DHT22;18385;51.572;6.578;2023-07-08T10:16:59;31.60;34.30
31677;DHT22;18385;51.572;6.578;2023-07-08T10:19:24;31.60;34.10
31677;DHT22;18385;51.572;6.578;2023-07-08T10:22:05;31.70;34.00
31677;DHT22;18385;51.572;6.578;2023-07-08T10:35:20;32.00;33.30
31677;DHT22;18385;51.572;6.578;2023-07-08T10:51:55;32.20;32.80
31677;DHT22;18385;51.572;6.578;2023-07-08T10:54:32;32.30;32.60
31677;DHT22;18385;51.572;6.578;2023-07-08T11:02:44;32.60;32.10
31677;DHT22;18385;51.572;6.578;2023-07-08T11:07:45;32.80;31.60
31677;DHT22;18385;51.572;6.578;2023-07-08T11:10:35;32.80;31.50
31677;DHT22;18385;51.572;6.578;2023-07-08T11:13:06;32.80;31.70
31677;DHT22;18385;51.572;6.578;2023-07-08T11:15:58;32.90;31.40
31677;DHT22;18385;51.572;6.578;2023-07-08T11:18:43;33.10;31.50
31677;DHT22;18385;51.572;6.578;2023-07-08T11:27:00;33.50;30.80
31677;DHT22;18385;51.572;6.578;2023-07-08T11:29:49;33.60;30.10
31677;DHT22;18385;51.572;6.578;2023-07-08T11:32:18;33.60;30.50
31677;DHT22;18385;51.572;6.578;2023-07-08T11:34:47;33.80;30.80
31677;DHT22;18385;51.572;6.578;2023-07-08T11:37:14;33.90;30.10
31677;DHT22;18385;51.572;6.578;2023-07-08T11:39:42;34.00;29.80
31677;DHT22;18385;51.572;6.578;2023-07-08T11:44:57;34.00;29.70
31677;DHT22;18385;51.572;6.578;2023-07-08T11:47:45;34.10;29.10
31677;DHT22;18385;51.572;6.578;2023-07-08T11:50:25;34.20;29.60
31677;DHT22;18385;51.572;6.578;2023-07-08T11:53:07;34.30;29.00
31677;DHT22;18385;51.572;6.578;2023-07-08T11:55:46;34.40;29.10
31677;DHT22;18385;51.572;6.578;2023-07-08T11:58:30;34.60;28.90
31677;DHT22;18385;51.572;6.578;2023-07-08T12:03:36;34.80;29.00
31677;DHT22;18385;51.572;6.578;2023-07-08T12:06:02;34.80;28.30
31677;DHT22;18385;51.572;6.578;2023-07-08T12:08:37;34.90;28.20
31677;DHT22;18385;51.572;6.578;2023-07-08T12:11:10;35.00;28.10
31677;DHT22;18385;51.572;6.578;2023-07-08T12:13:37;35.10;28.20
31677;DHT22;18385;51.572;6.578;2023-07-08T12:16:08;35.20;28.20
31677;DHT22;18385;51.572;6.578;2023-07-08T12:18:36;35.30;27.70
31677;DHT22;18385;51.572;6.578;2023-07-08T12:21:04;35.30;27.50
31677;DHT22;18385;51.572;6.578;2023-07-08T12:23:33;35.40;27.40
31677;DHT22;18385;51.572;6.578;2023-07-08T12:25:58;35.60;27.60
31677;DHT22;18385;51.572;6.578;2023-07-08T12:28:25;35.60;27.20
31677;DHT22;18385;51.572;6.578;2023-07-08T12:30:54;35.80;27.50
31677;DHT22;18385;51.572;6.578;2023-07-08T12:33:31;35.90;27.50
31677;DHT22;18385;51.572;6.578;2023-07-08T12:36:00;36.00;26.90
31677;DHT22;18385;51.572;6.578;2023-07-08T12:38:38;36.10;27.60
31677;DHT22;18385;51.572;6.578;2023-07-08T12:41:32;36.10;27.10
31677;DHT22;18385;51.572;6.578;2023-07-08T12:43:59;36.20;27.00
31677;DHT22;18385;51.572;6.578;2023-07-08T12:46:26;36.30;26.60
31677;DHT22;18385;51.572;6.578;2023-07-08T12:48:52;36.50;26.70
31677;DHT22;18385;51.572;6.578;2023-07-08T12:51:20;36.70;26.60
31677;DHT22;18385;51.572;6.578;2023-07-08T12:53:47;36.90;26.50
31677;DHT22;18385;51.572;6.578;2023-07-08T12:56:14;37.10;26.30
31677;DHT22;18385;51.572;6.578;2023-07-08T12:58:45;37.10;26.60
31677;DHT22;18385;51.572;6.578;2023-07-08T13:01:19;37.20;25.70
31677;DHT22;18385;51.572;6.578;2023-07-08T13:03:55;37.30;26.00
31677;DHT22;18385;51.572;6.578;2023-07-08T13:06:25;37.90;26.00
31677;DHT22;18385;51.572;6.578;2023-07-08T13:08:54;38.70;26.60
31677;DHT22;18385;51.572;6.578;2023-07-08T13:11:22;39.40;26.20
31677;DHT22;18385;51.572;6.578;2023-07-08T13:14:01;40.00;25.50
31677;DHT22;18385;51.572;6.578;2023-07-08T13:16:32;40.60;25.50
31677;DHT22;18385;51.572;6.578;2023-07-08T13:18:59;41.00;25.00
31677;DHT22;18385;51.572;6.578;2023-07-08T13:21:26;41.40;24.60
31677;DHT22;18385;51.572;6.578;2023-07-08T13:23:56;41.80;24.10
31677;DHT22;18385;51.572;6.578;2023-07-08T13:26:23;42.10;23.90
31677;DHT22;18385;51.572;6.578;2023-07-08T13:28:50;42.50;23.30
31677;DHT22;18385;51.572;6.578;2023-07-08T13:31:24;42.80;23.20
31677;DHT22;18385;51.572;6.578;2023-07-08T13:33:57;43.20;22.70
31677;DHT22;18385;51.572;6.578;2023-07-08T13:36:35;43.50;22.70
31677;DHT22;18385;51.572;6.578;2023-07-08T13:39:08;43.90;22.50
31677;DHT22;18385;51.572;6.578;2023-07-08T13:41:34;44.10;21.50
31677;DHT22;18385;51.572;6.578;2023-07-08T13:44:06;44.20;21.80
31677;DHT22;18385;51.572;6.578;2023-07-08T13:46:56;44.40;21.40
31677;DHT22;18385;51.572;6.578;2023-07-08T13:49:29;44.70;21.70
31677;DHT22;18385;51.572;6.578;2023-07-08T13:52:16;44.90;21.10
31677;DHT22;18385;51.572;6.578;2023-07-08T13:54:53;45.20;20.70
31677;DHT22;18385;51.572;6.578;2023-07-08T13:57:22;45.40;20.10
31677;DHT22;18385;51.572;6.578;2023-07-08T13:59:48;45.60;20.30
31677;DHT22;18385;51.572;6.578;2023-07-08T14:02:21;45.80;19.70
31677;DHT22;18385;51.572;6.578;2023-07-08T14:04:49;46.10;19.60
31677;DHT22;18385;51.572;6.578;2023-07-08T14:07:22;46.30;19.00
31677;DHT22;18385;51.572;6.578;2023-07-08T14:09:48;46.50;18.60
31677;DHT22;18385;51.572;6.578;2023-07-08T14:12:14;46.60;18.70
31677;DHT22;18385;51.572;6.578;2023-07-08T14:14:40;46.90;19.00
31677;DHT22;18385;51.572;6.578;2023-07-08T14:17:08;47.10;18.10
31677;DHT22;18385;51.572;6.578;2023-07-08T14:19:35;47.40;17.90
31677;DHT22;18385;51.572;6.578;2023-07-08T14:24:39;47.70;18.00
31677;DHT22;18385;51.572;6.578;2023-07-08T14:27:08;47.70;17.70
31677;DHT22;18385;51.572;6.578;2023-07-08T14:29:38;47.90;17.20
31677;DHT22;18385;51.572;6.578;2023-07-08T14:32:04;48.20;17.10
31677;DHT22;18385;51.572;6.578;2023-07-08T14:34:30;48.30;17.10
31677;DHT22;18385;51.572;6.578;2023-07-08T14:36:58;48.60;17.00
31677;DHT22;18385;51.572;6.578;2023-07-08T14:39:23;48.60;16.80
31677;DHT22;18385;51.572;6.578;2023-07-08T14:41:50;48.60;16.40
31677;DHT22;18385;51.572;6.578;2023-07-08T14:44:31;48.60;16.50
31677;DHT22;18385;51.572;6.578;2023-07-08T14:46:58;48.90;16.50
31677;DHT22;18385;51.572;6.578;2023-07-08T14:49:24;48.90;16.20
31677;DHT22;18385;51.572;6.578;2023-07-08T14:51:50;49.10;16.40
31677;DHT22;18385;51.572;6.578;2023-07-08T14:54:17;49.30;16.10
31677;DHT22;18385;51.572;6.578;2023-07-08T14:56:43;49.60;16.10
31677;DHT22;18385;51.572;6.578;2023-07-08T14:59:19;49.90;16.20
31677;DHT22;18385;51.572;6.578;2023-07-08T15:01:46;50.20;15.90
31677;DHT22;18385;51.572;6.578;2023-07-08T15:04:14;50.30;15.70
31677;DHT22;18385;51.572;6.578;2023-07-08T15:06:41;49.70;15.30
31677;DHT22;18385;51.572;6.578;2023-07-08T15:09:07;48.90;15.70
31677;DHT22;18385;51.572;6.578;2023-07-08T15:11:33;48.50;16.00
31677;DHT22;18385;51.572;6.578;2023-07-08T15:14:00;48.00;16.00
31677;DHT22;18385;51.572;6.578;2023-07-08T15:16:26;47.40;16.10
31677;DHT22;18385;51.572;6.578;2023-07-08T15:18:52;46.80;16.00
31677;DHT22;18385;51.572;6.578;2023-07-08T15:21:18;46.10;16.30
31677;DHT22;18385;51.572;6.578;2023-07-08T15:23:43;46.30;16.90
31677;DHT22;18385;51.572;6.578;2023-07-08T15:26:11;46.50;16.70
31677;DHT22;18385;51.572;6.578;2023-07-08T15:31:02;44.90;16.30
31677;DHT22;18385;51.572;6.578;2023-07-08T15:33:28;44.40;17.00
31677;DHT22;18385;51.572;6.578;2023-07-08T15:35:54;45.10;16.90
31677;DHT22;18385;51.572;6.578;2023-07-08T15:38:20;45.80;16.30
31677;DHT22;18385;51.572;6.578;2023-07-08T15:40:46;45.90;16.90
31677;DHT22;18385;51.572;6.578;2023-07-08T15:43:13;45.80;17.10
31677;DHT22;18385;51.572;6.578;2023-07-08T15:45:40;46.00;16.60
31677;DHT22;18385;51.572;6.578;2023-07-08T15:48:19;45.30;16.30
31677;DHT22;18385;51.572;6.578;2023-07-08T15:50:47;44.50;16.90
31677;DHT22;18385;51.572;6.578;2023-07-08T15:53:16;43.70;17.10
31677;DHT22;18385;51.572;6.578;2023-07-08T15:55:44;43.20;17.00
31677;DHT22;18385;51.572;6.578;2023-07-08T15:58:28;42.70;17.50
31677;DHT22;18385;51.572;6.578;2023-07-08T16:00:58;42.20;17.80
31677;DHT22;18385;51.572;6.578;2023-07-08T16:03:30;41.80;18.20
31677;DHT22;18385;51.572;6.578;2023-07-08T16:05:57;41.40;18.70
31677;DHT22;18385;51.572;6.578;2023-07-08T16:08:24;41.10;18.80
31677;DHT22;18385;51.572;6.578;2023-07-08T16:10:59;40.80;18.20
31677;DHT22;18385;51.572;6.578;2023-07-08T16:13:34;40.40;18.40
31677;DHT22;18385;51.572;6.578;2023-07-08T16:16:03;40.20;18.90
31677;DHT22;18385;51.572;6.578;2023-07-08T16:18:30;40.10;18.60
31677;DHT22;18385;51.572;6.578;2023-07-08T16:21:01;40.10;18.70
31677;DHT22;18385;51.572;6.578;2023-07-08T16:23:26;40.00;18.70
31677;DHT22;18385;51.572;6.578;2023-07-08T16:25:55;40.00;19.00
31677;DHT22;18385;51.572;6.578;2023-07-08T16:28:30;39.70;18.90
31677;DHT22;18385;51.572;6.578;2023-07-08T16:30:59;39.50;19.60
31677;DHT22;18385;51.572;6.578;2023-07-08T16:33:25;39.50;19.40
31677;DHT22;18385;51.572;6.578;2023-07-08T16:35:51;39.40;19.80
31677;DHT22;18385;51.572;6.578;2023-07-08T16:38:17;39.20;19.70
31677;DHT22;18385;51.572;6.578;2023-07-08T16:40:42;39.10;19.90
31677;DHT22;18385;51.572;6.578;2023-07-08T16:43:27;39.00;20.70
31677;DHT22;18385;51.572;6.578;2023-07-08T16:45:54;38.90;20.40
31677;DHT22;18385;51.572;6.578;2023-07-08T16:48:19;38.90;21.00
31677;DHT22;18385;51.572;6.578;2023-07-08T16:50:46;38.80;20.70